Time;durP1;ratioP1;P1;durP2;ratioP2;P2;SDS_P1;SDS_P2;PMS_P1;PMS_P2;Temp;Humidity;BMP_temperature;BMP_pressure;BME280_temperature;BME280_humidity;BME280_pressure;Samples;Min_cycle;Max_cycle;Signal;HPM_P1;HPM_P2
2023/04/02 00:01:18;;;;;;;97.57;72.97;;;;;;;7.34;100.00;95924.66;5027247;28;20183;-71
2023/04/02 00:03:43;;;;;;;84.23;54.10;;;;;;;7.34;100.00;95925.44;5033038;28;20313;-71
2023/04/02 00:06:31;;;;;;;411.67;121.00;;;;;;;7.32;100.00;95927.47;5032296;28;20194;-71
2023/04/02 00:09:28;;;;;;;14.07;13.03;;;;;;;7.27;100.00;95932.59;5032678;28;20686;-71
2023/04/02 00:11:54;;;;;;;57.13;34.93;;;;;;;7.30;100.00;95933.97;5003854;28;20222;-71
2023/04/02 00:14:32;;;;;;;26.43;23.60;;;;;;;7.25;100.00;95937.22;5032209;28;20182;-71
2023/04/02 00:17:00;;;;;;;322.50;111.50;;;;;;;7.25;100.00;95939.03;5033096;28;20251;-71
2023/04/02 00:19:50;;;;;;;340.07;108.77;;;;;;;7.22;100.00;95945.50;5014518;28;20576;-70
2023/04/02 00:22:18;;;;;;;444.87;124.07;;;;;;;7.29;100.00;95940.19;5020674;28;20201;-71
2023/04/02 00:24:44;;;;;;;51.87;36.63;;;;;;;7.19;100.00;95942.56;5032705;28;20182;-71
2023/04/02 00:27:12;;;;;;;293.40;98.27;;;;;;;7.15;100.00;95944.81;5032488;28;20196;-71
2023/04/02 00:29:46;;;;;;;440.73;139.17;;;;;;;7.20;100.00;95944.13;5033262;28;20277;-71
2023/04/02 00:32:20;;;;;;;90.83;59.67;;;;;;;7.25;100.00;95952.84;5031955;28;20197;-71
2023/04/02 00:34:45;;;;;;;101.73;53.73;;;;;;;7.28;100.00;95954.22;5032761;28;20179;-71
2023/04/02 00:37:22;;;;;;;367.70;125.13;;;;;;;7.25;100.00;95949.44;5033006;28;20216;-70
2023/04/02 00:39:49;;;;;;;179.17;102.07;;;;;;;7.14;100.00;95951.03;5018507;28;20170;-71
2023/04/02 00:42:17;;;;;;;124.10;66.03;;;;;;;7.25;100.00;95952.84;5032858;28;20594;-71
2023/04/02 00:44:44;;;;;;;196.03;87.67;;;;;;;7.24;100.00;95951.28;5015092;28;20551;-71
2023/04/02 00:47:32;;;;;;;422.13;107.00;;;;;;;7.24;100.00;95953.09;5032741;28;20190;-71
2023/04/02 00:50:16;;;;;;;264.10;69.63;;;;;;;7.22;100.00;95950.72;5032442;28;20202;-71
2023/04/02 00:52:45;;;;;;;447.10;128.37;;;;;;;7.22;100.00;95942.09;5032533;28;20190;-71
2023/04/02 00:55:20;;;;;;;94.37;66.57;;;;;;;7.13;100.00;95946.84;5014974;28;20179;-71
2023/04/02 00:57:50;;;;;;;69.17;51.97;;;;;;;7.18;100.00;95944.38;5016454;28;20170;-71
2023/04/02 01:00:28;;;;;;;42.10;35.33;;;;;;;7.23;100.00;95948.91;5032190;28;20193;-71
2023/04/02 01:03:15;;;;;;;3.73;3.63;;;;;;;7.21;100.00;95943.13;5032298;28;20226;-71
2023/04/02 01:06:00;;;;;;;24.23;20.60;;;;;;;7.20;100.00;95950.13;5033700;28;20204;-71
2023/04/02 01:08:30;;;;;;;22.00;20.10;;;;;;;7.28;100.00;95956.84;5052395;28;20186;-71
2023/04/02 01:11:30;;;;;;;25.93;20.57;;;;;;;7.26;100.00;95957.06;5040713;28;20221;-71
2023/04/02 01:14:36;;;;;;;41.70;36.33;;;;;;;7.24;100.00;95964.31;5035165;28;20269;-71
2023/04/02 01:17:27;;;;;;;31.60;28.30;;;;;;;7.23;100.00;95964.53;5052434;28;20186;-71
2023/04/02 01:20:11;;;;;;;14.30;13.10;;;;;;;7.31;100.00;95957.16;5050666;28;20296;-71
2023/04/02 01:22:47;;;;;;;58.93;44.50;;;;;;;7.37;100.00;95958.06;5044425;28;20181;-71
2023/04/02 01:25:21;;;;;;;147.57;91.27;;;;;;;7.40;100.00;95966.25;5032601;28;20679;-71
2023/04/02 01:27:56;;;;;;;90.30;68.27;;;;;;;7.33;100.00;95962.16;5032516;28;20194;-71
2023/04/02 01:30:23;;;;;;;32.43;29.20;;;;;;;7.42;100.00;95964.19;5049762;28;20194;-71
2023/04/02 01:32:48;;;;;;;10.60;9.57;;;;;;;7.30;100.00;95966.00;5028429;28;20202;-71
2023/04/02 01:35:14;;;;;;;0.60;0.60;;;;;;;7.39;100.00;95975.09;5036544;28;20639;-71
2023/04/02 01:37:56;;;;;;;0.80;0.80;;;;;;;7.28;100.00;95962.03;5037424;28;20654;-71
2023/04/02 01:40:51;;;;;;;2.27;2.23;;;;;;;7.35;100.00;95960.13;5038775;28;20265;-71
2023/04/02 01:43:31;;;;;;;53.00;38.37;;;;;;;7.26;100.00;95970.09;5045766;28;20237;-71
2023/04/02 01:45:57;;;;;;;1.63;1.63;;;;;;;7.30;100.00;95971.22;5036345;28;20179;-71
2023/04/02 01:48:28;;;;;;;69.97;46.40;;;;;;;7.36;100.00;95972.91;5052924;28;20233;-71
2023/04/02 01:50:56;;;;;;;53.63;45.93;;;;;;;7.46;100.00;95978.38;5051209;28;20253;-71
2023/04/02 01:53:25;;;;;;;398.53;107.53;;;;;;;7.47;100.00;95979.94;5035715;28;20181;-71
2023/04/02 01:55:58;;;;;;;356.90;90.20;;;;;;;7.34;100.00;95976.78;5036151;28;20190;-71
2023/04/02 01:58:27;;;;;;;388.33;74.30;;;;;;;7.39;100.00;95974.28;5053780;28;20270;-71
2023/04/02 02:01:00;;;;;;;368.43;80.47;;;;;;;7.40;100.00;95989.72;5053863;28;20534;-71
2023/04/02 02:03:25;;;;;;;389.20;71.83;;;;;;;7.38;100.00;95983.91;5026017;28;20251;-71
2023/04/02 02:05:51;;;;;;;333.03;63.47;;;;;;;7.32;100.00;95990.03;5015909;28;20206;-71
2023/04/02 02:08:31;;;;;;;398.47;68.13;;;;;;;7.28;100.00;95983.69;5030711;28;20282;-71
2023/04/02 02:10:57;;;;;;;359.47;65.37;;;;;;;7.39;100.00;95993.34;5030594;28;20199;-71
2023/04/02 02:13:23;;;;;;;368.97;69.57;;;;;;;7.34;100.00;95995.81;5008056;28;20195;-71
2023/04/02 02:15:49;;;;;;;358.67;62.83;;;;;;;7.36;100.00;95993.78;5016258;28;20578;-70
2023/04/02 02:18:18;;;;;;;396.97;70.07;;;;;;;7.36;100.00;95992.97;5033526;28;20174;-71
2023/04/02 02:20:44;;;;;;;393.73;64.57;;;;;;;7.36;100.00;95998.97;5030740;28;20199;-71
2023/04/02 02:23:11;;;;;;;395.40;64.33;;;;;;;7.45;100.00;96002.06;5032815;28;20182;-71
2023/04/02 02:25:38;;;;;;;397.20;67.57;;;;;;;7.40;100.00;96007.97;5031711;28;20206;-71
2023/04/02 02:28:15;;;;;;;396.70;65.43;;;;;;;7.38;100.00;96002.16;5035211;28;20190;-71
2023/04/02 02:31:05;;;;;;;400.20;67.27;;;;;;;7.35;100.00;96009.66;5032731;28;20202;-71
2023/04/02 02:33:37;;;;;;;402.13;69.70;;;;;;;7.44;100.00;96014.31;4999867;28;20219;-71
2023/04/02 02:36:26;;;;;;;1.07;0.93;;;;;;;7.39;100.00;96026.44;4994761;28;20172;-71
2023/04/02 02:38:59;;;;;;;32.43;7.03;;;;;;;7.41;100.00;96027.00;4995704;28;20204;-71
2023/04/02 02:41:29;;;;;;;0.27;0.27;;;;;;;7.50;100.00;96016.00;4995830;28;20183;-70
2023/04/02 02:44:10;;;;;;;0.40;0.40;;;;;;;7.59;100.00;96020.88;5007508;28;20196;-71
2023/04/02 02:46:44;;;;;;;0.50;0.50;;;;;;;7.47;100.00;96026.06;5024319;28;20175;-71
2023/04/02 02:49:16;;;;;;;2.50;2.40;;;;;;;7.46;100.00;96024.50;5035078;28;20202;-71
2023/04/02 02:52:10;;;;;;;1.43;1.33;;;;;;;7.46;100.00;96027.13;5035062;28;20171;-71
2023/04/02 02:54:41;;;;;;;11.17;10.13;;;;;;;7.46;100.00;96037.56;5034954;28;20594;-71
2023/04/02 02:57:13;;;;;;;3.30;3.03;;;;;;;7.61;100.00;96026.66;5021530;28;20195;-71
2023/04/02 02:59:39;;;;;;;313.60;56.53;;;;;;;7.52;100.00;96026.22;5015089;28;20299;-71
2023/04/02 03:02:08;;;;;;;397.40;68.40;;;;;;;7.55;100.00;96022.34;5034708;28;20238;-71
2023/04/02 03:04:34;;;;;;;382.90;66.47;;;;;;;7.50;100.00;96038.69;5034761;28;20273;-71
2023/04/02 03:07:02;;;;;;;161.93;34.87;;;;;;;7.53;100.00;96039.00;5034883;28;20237;-71
2023/04/02 03:10:05;;;;;;;230.07;48.23;;;;;;;7.45;100.00;96041.19;5035527;28;20198;-71
2023/04/02 03:13:06;;;;;;;324.87;57.53;;;;;;;7.45;100.00;96049.00;5037887;28;20646;-71
2023/04/02 03:15:39;;;;;;;400.70;65.27;;;;;;;7.43;100.00;96049.22;5052893;28;20340;-71
2023/04/02 03:18:13;;;;;;;276.67;57.77;;;;;;;7.53;100.00;96056.47;5054139;28;20213;-71
2023/04/02 03:20:55;;;;;;;374.60;65.40;;;;;;;7.62;100.00;96043.91;5053708;28;20182;-71
2023/04/02 03:23:29;;;;;;;402.67;66.87;;;;;;;7.60;100.00;96046.72;5035994;28;20666;-72
2023/04/02 03:26:01;;;;;;;366.50;64.63;;;;;;;7.59;100.00;96060.78;5044045;28;20178;-71
2023/04/02 03:28:32;;;;;;;21.93;14.97;;;;;;;7.61;100.00;96063.19;5053924;28;20196;-71
2023/04/02 03:31:22;;;;;;;402.30;65.67;;;;;;;7.67;100.00;96059.66;5053308;28;20217;-71
2023/04/02 03:34:22;;;;;;;403.67;71.37;;;;;;;7.58;100.00;96064.41;5035942;28;20186;-71
2023/04/02 03:36:56;;;;;;;404.97;67.93;;;;;;;7.60;100.00;96072.00;5020981;28;20202;-71
2023/04/02 03:39:26;;;;;;;403.13;65.50;;;;;;;7.64;100.00;96073.94;5053503;28;20174;-71
2023/04/02 03:42:13;;;;;;;323.00;61.00;;;;;;;7.52;100.00;96073.91;5048179;28;20205;-71
2023/04/02 03:44:46;;;;;;;264.47;52.13;;;;;;;7.48;100.00;96078.00;5033961;28;20171;-70
2023/04/02 03:47:48;;;;;;;199.03;56.77;;;;;;;7.48;100.00;96079.81;5033603;28;20197;-71
2023/04/02 03:50:52;;;;;;;343.60;67.80;;;;;;;7.50;100.00;96089.03;5027355;28;20547;-71
2023/04/02 03:53:22;;;;;;;409.30;68.67;;;;;;;7.49;100.00;96092.63;5018858;28;20260;-71
2023/04/02 03:55:48;;;;;;;406.00;72.83;;;;;;;7.53;100.00;96087.75;5015095;28;20229;-71
2023/04/02 03:58:45;;;;;;;404.77;66.90;;;;;;;7.51;100.00;96095.81;5033488;28;20190;-71
2023/04/02 04:01:23;;;;;;;11.30;10.43;;;;;;;7.53;100.00;96092.97;5032857;28;20268;-71
2023/04/02 04:03:54;;;;;;;4.20;4.00;;;;;;;7.50;100.00;96093.44;5041182;28;20303;-71
2023/04/02 04:06:26;;;;;;;1.80;1.73;;;;;;;7.53;100.00;96095.59;5015651;28;20190;-71
2023/04/02 04:08:57;;;;;;;5.80;5.53;;;;;;;7.48;100.00;96093.66;5048493;28;20510;-71
2023/04/02 04:11:32;;;;;;;12.67;11.97;;;;;;;7.59;100.00;96099.09;5040605;28;20265;-71
2023/04/02 04:14:07;;;;;;;1.63;1.60;;;;;;;7.47;100.00;96101.69;5045535;28;20616;-71
2023/04/02 04:16:54;;;;;;;83.93;34.13;;;;;;;7.49;100.00;96097.06;5033310;28;20260;-71
2023/04/02 04:19:28;;;;;;;146.37;45.10;;;;;;;7.50;100.00;96099.44;5033044;28;20194;-71
2023/04/02 04:22:13;;;;;;;32.93;29.53;;;;;;;7.36;100.00;96110.28;5034248;28;20179;-71
2023/04/02 04:24:44;;;;;;;9.93;9.23;;;;;;;7.42;100.00;96115.41;5033394;28;20244;-71
2023/04/02 04:27:33;;;;;;;14.00;12.47;;;;;;;7.43;100.00;96114.38;5032806;28;20689;-71
2023/04/02 04:30:06;;;;;;;2.70;2.37;;;;;;;7.40;100.00;96114.03;5052727;28;20271;-71
2023/04/02 04:32:41;;;;;;;0.30;0.30;;;;;;;7.46;100.00;96108.75;5044726;28;20194;-71
2023/04/02 04:35:22;;;;;;;0.10;0.10;;;;;;;7.34;100.00;96107.91;5050852;28;20708;-71
2023/04/02 04:37:57;;;;;;;0.20;0.20;;;;;;;7.32;100.00;96130.78;5033869;28;20189;-71
2023/04/02 04:40:27;;;;;;;0.20;0.20;;;;;;;7.43;100.00;96124.00;5047678;28;20262;-71
2023/04/02 04:42:56;;;;;;;0.17;0.17;;;;;;;7.33;100.00;96132.38;5033097;28;20187;-71
2023/04/02 04:45:25;;;;;;;0.10;0.10;;;;;;;7.34;100.00;96133.19;5033303;28;20248;-70
2023/04/02 04:47:59;;;;;;;0.20;0.20;;;;;;;7.52;100.00;96130.53;5032841;28;20578;-70
2023/04/02 04:50:31;;;;;;;0.20;0.20;;;;;;;7.29;100.00;96133.84;5037453;28;20196;-70
2023/04/02 04:52:56;;;;;;;0.20;0.20;;;;;;;7.35;100.00;96137.38;5043488;28;20616;-70
2023/04/02 04:55:36;;;;;;;0.20;0.20;;;;;;;7.32;100.00;96143.81;5033271;28;20205;-70
2023/04/02 04:58:22;;;;;;;0.10;0.10;;;;;;;7.39;100.00;96146.34;5050460;28;20242;-70
2023/04/02 05:00:54;;;;;;;0.20;0.20;;;;;;;7.33;100.00;96148.03;5044449;28;20182;-70
2023/04/02 05:03:32;;;;;;;0.20;0.20;;;;;;;7.44;100.00;96151.69;5045602;28;20233;-70
2023/04/02 05:06:38;;;;;;;0.20;0.20;;;;;;;7.35;100.00;96156.44;5040762;28;20249;-70
2023/04/02 05:09:16;;;;;;;0.20;0.20;;;;;;;7.30;100.00;96153.66;5025557;28;20213;-71
2023/04/02 05:12:04;;;;;;;0.20;0.20;;;;;;;7.30;100.00;96158.88;5036468;28;20174;-71
2023/04/02 05:15:08;;;;;;;0.30;0.30;;;;;;;7.39;100.00;96156.78;5036188;28;20237;-70
2023/04/02 05:17:45;;;;;;;0.10;0.10;;;;;;;7.39;100.00;96165.38;4994508;28;20202;-70
2023/04/02 05:20:22;;;;;;;0.10;0.10;;;;;;;7.40;100.00;96161.78;5001714;28;20179;-70
2023/04/02 05:22:56;;;;;;;0.10;0.10;;;;;;;7.63;100.00;96173.28;5014322;28;20644;-70
2023/04/02 05:25:23;;;;;;;0.10;0.10;;;;;;;7.66;100.00;96168.41;4997715;28;20615;-71
2023/04/02 05:28:02;;;;;;;0.10;0.10;;;;;;;7.47;100.00;96170.28;5013934;28;20191;-71
2023/04/02 05:30:28;;;;;;;0.20;0.20;;;;;;;7.46;100.00;96173.13;5013557;28;20218;-70
2023/04/02 05:32:58;;;;;;;0.10;0.10;;;;;;;7.45;100.00;96180.16;4996963;28;20196;-71
2023/04/02 05:35:33;;;;;;;0.10;0.10;;;;;;;7.50;100.00;96174.25;5011259;28;20241;-70
2023/04/02 05:38:00;;;;;;;0.20;0.20;;;;;;;7.55;100.00;96184.81;5013982;28;20181;-70
2023/04/02 05:40:35;;;;;;;0.10;0.10;;;;;;;7.56;100.00;96183.81;5005954;28;20190;-70
2023/04/02 05:43:06;;;;;;;0.10;0.10;;;;;;;7.57;100.00;96182.78;4994601;28;20197;-70
2023/04/02 05:45:35;;;;;;;0.20;0.20;;;;;;;7.63;100.00;96188.94;4995302;28;20188;-71
2023/04/02 05:48:12;;;;;;;0.20;0.20;;;;;;;7.70;100.00;96200.06;5029447;28;20190;-70
2023/04/02 05:50:44;;;;;;;0.10;0.10;;;;;;;7.68;100.00;96192.47;5043700;28;20260;-70
2023/04/02 05:53:22;;;;;;;0.10;0.10;;;;;;;7.84;100.00;96206.69;5036273;28;20182;-70
2023/04/02 05:55:53;;;;;;;0.10;0.10;;;;;;;7.82;100.00;96211.31;5036853;28;20667;-70
2023/04/02 05:58:31;;;;;;;0.03;0.03;;;;;;;7.83;100.00;96212.91;5035853;28;20183;-70
2023/04/02 06:01:06;;;;;;;0.20;0.20;;;;;;;7.76;100.00;96212.19;5018247;28;20240;-71
2023/04/02 06:03:50;;;;;;;0.10;0.10;;;;;;;7.55;100.00;96213.50;5036479;28;20222;-70
2023/04/02 06:06:42;;;;;;;0.10;0.10;;;;;;;7.76;100.00;96227.84;5035514;28;20613;-71
2023/04/02 06:09:16;;;;;;;0.10;0.10;;;;;;;7.79;100.00;96219.59;5037998;28;20214;-70
2023/04/02 06:11:49;;;;;;;0.10;0.10;;;;;;;7.69;100.00;96225.34;5055584;28;20172;-71
2023/04/02 06:14:16;;;;;;;0.20;0.20;;;;;;;7.71;100.00;96227.72;5045931;28;20187;-70
2023/04/02 06:16:44;;;;;;;0.10;0.10;;;;;;;7.70;100.00;96234.75;5035391;28;20537;-71
2023/04/02 06:19:17;;;;;;;0.10;0.10;;;;;;;7.67;100.00;96237.81;5021620;28;20238;-71
2023/04/02 06:21:48;;;;;;;0.10;0.10;;;;;;;7.62;100.00;96229.88;5055110;28;20166;-70
2023/04/02 06:24:18;;;;;;;0.10;0.10;;;;;;;7.88;100.00;96244.34;5042044;28;20195;-69
2023/04/02 06:26:50;;;;;;;0.10;0.10;;;;;;;7.78;100.00;96239.66;5035443;28;20655;-70
2023/04/02 06:29:36;;;;;;;0.10;0.10;;;;;;;7.85;100.00;96247.41;5018048;28;20181;-70
2023/04/02 06:32:04;;;;;;;0.10;0.10;;;;;;;7.89;100.00;96246.75;5034390;28;20201;-71
2023/04/02 06:34:31;;;;;;;0.10;0.10;;;;;;;7.90;100.00;96253.56;5036241;28;20603;-72
2023/04/02 06:37:01;;;;;;;0.10;0.10;;;;;;;7.92;100.00;96254.09;5034429;28;20190;-71
2023/04/02 06:39:27;;;;;;;0.10;0.10;;;;;;;7.92;100.00;96256.72;5035483;28;20186;-71
2023/04/02 06:42:15;;;;;;;0.10;0.10;;;;;;;7.99;100.00;96255.81;5035207;28;20231;-71
2023/04/02 06:44:41;;;;;;;0.10;0.10;;;;;;;8.06;100.00;96266.97;5036022;28;20175;-71
2023/04/02 06:47:33;;;;;;;0.10;0.10;;;;;;;8.09;100.00;96271.72;5035173;28;20193;-71
2023/04/02 06:50:13;;;;;;;0.17;0.17;;;;;;;8.26;100.00;96275.28;5028614;28;20271;-71
2023/04/02 06:52:45;;;;;;;0.00;0.00;;;;;;;8.17;100.00;96281.88;5050673;28;20182;-71
2023/04/02 06:55:28;;;;;;;0.10;0.10;;;;;;;8.15;100.00;96282.09;5035402;28;20275;-71
2023/04/02 06:57:54;;;;;;;0.10;0.10;;;;;;;8.33;100.00;96289.09;5034751;28;20209;-71
2023/04/02 07:00:36;;;;;;;0.10;0.10;;;;;;;8.54;100.00;96300.81;5034913;28;21059;-71
2023/04/02 07:03:05;;;;;;;0.10;0.10;;;;;;;8.42;100.00;96305.22;5036098;28;20683;-71
2023/04/02 07:05:30;;;;;;;0.10;0.10;;;;;;;8.34;100.00;96309.75;5036000;28;20285;-71
2023/04/02 07:07:56;;;;;;;0.10;0.10;;;;;;;8.34;100.00;96317.59;5053900;28;20712;-71
2023/04/02 07:10:21;;;;;;;0.00;0.00;;;;;;;8.40;100.00;96309.88;5016578;28;20286;-72
2023/04/02 07:12:47;;;;;;;0.03;0.03;;;;;;;8.58;100.00;96312.41;5050962;28;20650;-72
2023/04/02 07:15:18;;;;;;;0.10;0.10;;;;;;;8.62;100.00;96316.97;5041016;28;20174;-71
2023/04/02 07:17:44;;;;;;;0.10;0.10;;;;;;;8.75;100.00;96313.31;5054158;28;20181;-71
2023/04/02 07:20:31;;;;;;;0.10;0.10;;;;;;;8.80;100.00;96317.88;5051926;28;20194;-71
2023/04/02 07:22:56;;;;;;;0.10;0.10;;;;;;;9.03;100.00;96320.47;5020207;28;20557;-71
2023/04/02 07:25:23;;;;;;;0.10;0.10;;;;;;;9.08;100.00;96328.47;5053980;28;20197;-70
2023/04/02 07:27:50;;;;;;;0.10;0.10;;;;;;;9.03;100.00;96326.50;5021131;28;20182;-71
2023/04/02 07:30:16;;;;;;;0.00;0.00;;;;;;;9.19;100.00;96338.13;5033749;28;20199;-72
2023/04/02 07:32:41;;;;;;;0.03;0.03;;;;;;;9.00;100.00;96337.44;5015614;28;20588;-72
2023/04/02 07:35:08;;;;;;;0.10;0.10;;;;;;;9.00;100.00;96344.47;5035526;28;20226;-72
2023/04/02 07:37:34;;;;;;;0.10;0.10;;;;;;;9.14;100.00;96345.81;5016671;28;20183;-71
2023/04/02 07:39:59;;;;;;;0.00;0.00;;;;;;;9.14;100.00;96354.47;5034269;28;20650;-71
2023/04/02 07:42:25;;;;;;;0.10;0.10;;;;;;;9.02;100.00;96351.06;5034334;28;20185;-71
2023/04/02 07:44:50;;;;;;;0.00;0.00;;;;;;;8.98;100.00;96352.53;5049995;28;20186;-71
2023/04/02 07:47:15;;;;;;;0.00;0.00;;;;;;;9.03;100.00;96352.66;5053420;28;20190;-71
2023/04/02 07:49:41;;;;;;;0.10;0.10;;;;;;;9.09;100.00;96358.78;5047895;28;20561;-70
2023/04/02 07:52:06;;;;;;;0.10;0.10;;;;;;;9.17;100.00;96359.25;5033868;28;20587;-71
2023/04/02 07:54:32;;;;;;;0.10;0.10;;;;;;;9.20;100.00;96368.44;5046806;28;20193;-71
2023/04/02 07:56:57;;;;;;;0.00;0.00;;;;;;;9.21;100.00;96370.03;5053410;28;20272;-70
2023/04/02 07:59:22;;;;;;;0.00;0.00;;;;;;;9.28;100.00;96375.97;5053346;28;20217;-71
2023/04/02 08:01:48;;;;;;;0.07;0.07;;;;;;;9.30;100.00;96375.75;5042795;28;20222;-70
2023/04/02 08:04:21;;;;;;;0.10;0.10;;;;;;;9.39;100.00;96383.00;5045594;28;20197;-71
2023/04/02 08:06:48;;;;;;;0.00;0.00;;;;;;;9.40;100.00;96386.41;5034139;28;21809;-70
2023/04/02 08:09:14;;;;;;;0.03;0.03;;;;;;;9.41;100.00;96386.19;5047606;28;20218;-70
2023/04/02 08:11:41;;;;;;;0.00;0.00;;;;;;;9.50;100.00;96391.88;5052740;28;20174;-71
2023/04/02 08:14:07;;;;;;;0.00;0.00;;;;;;;9.55;100.00;96390.16;5049814;28;20197;-71
2023/04/02 08:16:48;;;;;;;0.00;0.00;;;;;;;9.53;100.00;96389.56;5052911;28;20182;-71
2023/04/02 08:19:14;;;;;;;0.00;0.00;;;;;;;9.51;100.00;96396.88;5051567;28;20186;-71
2023/04/02 08:21:39;;;;;;;0.20;0.20;;;;;;;9.91;100.00;96391.69;5040492;28;20225;-71
2023/04/02 08:24:05;;;;;;;0.10;0.10;;;;;;;9.93;100.00;96396.69;5044113;28;20178;-70
2023/04/02 08:26:30;;;;;;;0.10;0.10;;;;;;;9.89;100.00;96403.41;5033373;28;20240;-71
2023/04/02 08:28:55;;;;;;;0.20;0.20;;;;;;;10.06;100.00;96401.66;5038005;28;20554;-71
2023/04/02 08:31:22;;;;;;;0.03;0.03;;;;;;;9.81;100.00;96414.22;5042599;28;20218;-71
2023/04/02 08:33:47;;;;;;;0.10;0.10;;;;;;;9.92;100.00;96414.19;5015754;28;20255;-70
2023/04/02 08:36:17;;;;;;;0.10;0.10;;;;;;;10.17;100.00;96416.56;5045344;28;20193;-71
2023/04/02 08:38:43;;;;;;;0.00;0.00;;;;;;;10.02;100.00;96421.47;5035344;28;20506;-71
2023/04/02 08:41:20;;;;;;;0.10;0.10;;;;;;;9.97;100.00;96422.16;5052245;28;20277;-71
2023/04/02 08:44:32;;;;;;;0.00;0.00;;;;;;;10.13;100.00;96425.91;5052921;28;20181;-70
2023/04/02 08:47:06;;;;;;;0.10;0.10;;;;;;;10.18;100.00;96427.84;5052789;28;20182;-70
2023/04/02 08:49:51;;;;;;;0.10;0.10;;;;;;;10.15;100.00;96430.88;5042942;28;20221;-70
2023/04/02 08:52:26;;;;;;;0.00;0.00;;;;;;;10.03;100.00;96439.56;5032983;28;20595;-69
2023/04/02 08:54:52;;;;;;;0.10;0.10;;;;;;;9.97;100.00;96439.72;5032810;28;20202;-69
2023/04/02 08:57:29;;;;;;;0.10;0.10;;;;;;;9.94;100.00;96442.78;5032863;28;20650;-69
2023/04/02 09:00:19;;;;;;;0.00;0.00;;;;;;;9.84;100.00;96445.97;5045119;28;20178;-68
2023/04/02 09:03:12;;;;;;;0.10;0.10;;;;;;;9.62;100.00;96444.97;5038493;28;20708;-68
2023/04/02 09:05:41;;;;;;;0.00;0.00;;;;;;;9.53;100.00;96451.56;5021740;28;20179;-69
2023/04/02 09:08:26;;;;;;;0.10;0.10;;;;;;;9.27;100.00;96460.66;5012138;28;20673;-69
2023/04/02 09:11:13;;;;;;;0.40;0.40;;;;;;;8.99;100.00;96465.72;5013947;28;20244;-69
2023/04/02 09:13:45;;;;;;;0.20;0.20;;;;;;;8.76;100.00;96454.19;5012710;28;20167;-69
2023/04/02 09:16:13;;;;;;;0.30;0.30;;;;;;;8.75;100.00;96467.47;5027077;28;20699;-69
2023/04/02 09:18:40;;;;;;;0.20;0.20;;;;;;;8.71;100.00;96471.56;5030725;28;20202;-69
2023/04/02 09:21:30;;;;;;;0.60;0.60;;;;;;;8.68;100.00;96464.97;5032442;28;20280;-68
2023/04/02 09:23:56;;;;;;;0.30;0.30;;;;;;;8.80;100.00;96472.06;5032235;28;20194;-69
2023/04/02 09:26:27;;;;;;;0.37;0.37;;;;;;;8.73;100.00;96474.75;5031756;28;20539;-69
2023/04/02 09:29:03;;;;;;;0.20;0.20;;;;;;;8.71;100.00;96474.16;5027007;28;20187;-69
2023/04/02 09:31:36;;;;;;;0.10;0.10;;;;;;;8.74;100.00;96478.97;5010359;28;20309;-68
2023/04/02 09:34:29;;;;;;;0.10;0.10;;;;;;;8.91;100.00;96484.34;5022101;28;20179;-69
2023/04/02 09:36:55;;;;;;;0.10;0.10;;;;;;;8.84;100.00;96491.47;5032393;28;20187;-69
2023/04/02 09:39:25;;;;;;;0.10;0.10;;;;;;;9.02;100.00;96500.06;5014233;28;20644;-69
2023/04/02 09:41:51;;;;;;;0.10;0.10;;;;;;;8.86;100.00;96502.53;5012836;28;20198;-69
2023/04/02 09:44:22;;;;;;;0.10;0.10;;;;;;;9.22;100.00;96512.03;5013541;28;20191;-69
2023/04/02 09:46:48;;;;;;;0.10;0.10;;;;;;;9.00;100.00;96511.75;4995179;28;20246;-68
2023/04/02 09:49:17;;;;;;;0.00;0.00;;;;;;;8.92;100.00;96512.06;5027287;28;20191;-69
2023/04/02 09:51:42;;;;;;;0.10;0.10;;;;;;;9.01;100.00;96518.59;5013113;28;20195;-69
2023/04/02 09:54:15;;;;;;;0.10;0.10;;;;;;;9.15;100.00;96512.13;5023499;28;20678;-69
2023/04/02 09:56:59;;;;;;;0.07;0.07;;;;;;;9.19;100.00;96516.69;5035543;28;20720;-69
2023/04/02 09:59:25;;;;;;;0.10;0.10;;;;;;;9.29;100.00;96518.78;5035630;28;20178;-70
2023/04/02 10:01:53;;;;;;;0.10;0.10;;;;;;;9.29;100.00;96523.19;5029681;28;20231;-70
2023/04/02 10:04:42;;;;;;;0.00;0.00;;;;;;;9.26;100.00;96529.66;4998242;28;20543;-70
2023/04/02 10:07:33;;;;;;;0.10;0.10;;;;;;;9.22;100.00;96532.97;5013711;28;20278;-70
2023/04/02 10:10:20;;;;;;;0.10;0.10;;;;;;;9.32;100.00;96541.84;5012499;28;20211;-69
2023/04/02 10:13:12;;;;;;;0.10;0.10;;;;;;;9.12;100.00;96536.94;5002800;28;20559;-70
2023/04/02 10:16:02;;;;;;;0.10;0.10;;;;;;;9.33;100.00;96538.22;5011582;28;20419;-69
2023/04/02 10:18:27;;;;;;;0.00;0.00;;;;;;;9.41;100.00;96543.13;5010816;28;20187;-69
2023/04/02 10:20:54;;;;;;;0.00;0.00;;;;;;;9.40;100.00;96543.34;5013784;28;20656;-70
2023/04/02 10:23:26;;;;;;;0.10;0.10;;;;;;;9.51;100.00;96545.19;5013135;28;20187;-70
2023/04/02 10:26:22;;;;;;;0.10;0.10;;;;;;;9.45;100.00;96548.72;5014023;28;20164;-70
2023/04/02 10:29:06;;;;;;;0.10;0.10;;;;;;;9.70;100.00;96545.88;5013913;28;20184;-69
2023/04/02 10:31:50;;;;;;;0.00;0.00;;;;;;;10.00;100.00;96549.19;5006803;28;20214;-69
2023/04/02 10:34:25;;;;;;;0.10;0.10;;;;;;;10.23;100.00;96543.97;5027220;28;20237;-69
2023/04/02 10:36:58;;;;;;;0.10;0.10;;;;;;;10.19;100.00;96553.31;5034332;28;20496;-69
2023/04/02 10:39:28;;;;;;;0.00;0.00;;;;;;;10.03;100.00;96544.28;5017237;28;20229;-69
2023/04/02 10:42:04;;;;;;;0.00;0.00;;;;;;;10.03;100.00;96554.75;5035111;28;20179;-70
2023/04/02 10:44:45;;;;;;;0.10;0.10;;;;;;;9.95;100.00;96549.88;5003118;28;20179;-69
2023/04/02 10:47:20;;;;;;;0.10;0.10;;;;;;;10.24;100.00;96560.50;5015340;28;20178;-69
2023/04/02 10:50:04;;;;;;;0.00;0.00;;;;;;;10.18;100.00;96559.59;5015410;28;20209;-69
2023/04/02 10:52:36;;;;;;;0.00;0.00;;;;;;;10.09;100.00;96574.00;5014091;28;20237;-70
2023/04/02 10:55:07;;;;;;;0.00;0.00;;;;;;;10.13;100.00;96566.50;5032845;28;20186;-69
2023/04/02 10:57:40;;;;;;;0.10;0.10;;;;;;;10.19;100.00;96568.25;5028692;28;20222;-69
2023/04/02 11:00:14;;;;;;;0.10;0.10;;;;;;;10.48;100.00;96577.75;5015547;28;20186;-69
2023/04/02 11:02:47;;;;;;;0.10;0.10;;;;;;;10.38;100.00;96578.34;5027811;28;20711;-69
2023/04/02 11:05:28;;;;;;;0.10;0.10;;;;;;;10.38;100.00;96582.78;5034113;28;20189;-68
2023/04/02 11:08:01;;;;;;;0.10;0.10;;;;;;;10.42;100.00;96589.19;5034447;28;20248;-69
2023/04/02 11:10:31;;;;;;;0.10;0.10;;;;;;;10.31;100.00;96595.19;5034092;28;20682;-69
2023/04/02 11:13:05;;;;;;;0.10;0.10;;;;;;;10.28;100.00;96593.06;5034351;28;20210;-68
2023/04/02 11:15:31;;;;;;;0.10;0.10;;;;;;;10.37;98.60;96589.03;5034218;28;20175;-68
2023/04/02 11:17:57;;;;;;;0.10;0.10;;;;;;;10.34;100.00;96600.00;5034226;28;20191;-69
2023/04/02 11:20:42;;;;;;;0.10;0.10;;;;;;;10.18;100.00;96598.06;5034369;28;20186;-68
2023/04/02 11:23:12;;;;;;;0.10;0.10;;;;;;;10.34;100.00;96600.78;5034548;28;20180;-68
2023/04/02 11:25:40;;;;;;;0.00;0.00;;;;;;;10.39;100.00;96598.28;5034243;28;20175;-68
2023/04/02 11:28:26;;;;;;;0.00;0.00;;;;;;;10.56;100.00;96608.84;5032621;28;20623;-68
2023/04/02 11:30:52;;;;;;;0.10;0.10;;;;;;;10.85;100.00;96607.09;5030061;28;20698;-67
2023/04/02 11:33:30;;;;;;;0.00;0.00;;;;;;;10.80;99.87;96605.16;5031657;28;20199;-68
2023/04/02 11:35:56;;;;;;;0.00;0.00;;;;;;;10.83;98.55;96614.38;5033862;28;20181;-68
2023/04/02 11:38:21;;;;;;;0.00;0.00;;;;;;;10.75;97.28;96607.69;5034267;28;20596;-68
2023/04/02 11:40:53;;;;;;;0.00;0.00;;;;;;;11.01;97.75;96613.44;5033686;28;20182;-69
2023/04/02 11:43:31;;;;;;;0.10;0.10;;;;;;;11.22;98.25;96610.16;5033988;28;20623;-68
2023/04/02 11:46:01;;;;;;;0.10;0.10;;;;;;;10.91;98.31;96614.03;5034093;28;20181;-68
2023/04/02 11:48:35;;;;;;;0.10;0.10;;;;;;;10.99;98.50;96624.13;5034085;28;20256;-69
2023/04/02 11:51:28;;;;;;;0.10;0.10;;;;;;;11.21;96.89;96621.66;5033349;28;20187;-69
2023/04/02 11:53:57;;;;;;;0.10;0.10;;;;;;;11.12;97.73;96617.84;5014658;28;20190;-69
2023/04/02 11:56:42;;;;;;;0.10;0.10;;;;;;;11.07;96.24;96622.97;5031974;28;20178;-69
2023/04/02 11:59:17;;;;;;;0.07;0.07;;;;;;;11.05;97.55;96628.47;5017273;28;20186;-68
2023/04/02 12:02:03;;;;;;;0.10;0.10;;;;;;;11.00;97.48;96624.94;5031866;28;20217;-68